KCVO - Corvallis Muni A, Oregon
Updated: Thu, 25-Jul-2024 5:56am PDT
Clear
Clear
 Wind from NW
Wind: NW 6 mph , 9 km/h
Temperature: 54°F , 12°C
Dew Point: 48°F , 9°C
Humidity: 82%
Barometer: 30.24 inHg , 1024 hPa
Clouds: Clear
Visibility: 10 miles , 16 km
2024/07/25 12:56 KCVO 251256Z 32005KT 10SM CLR 12/09 A3024 RMK AO2 SLP241 T01220094